Thunder radar more information blitzortung!


Rain radar  rain snow radar



Ingen spesiell oppmerksomhet nødvendig.    Det er ingen advarsler

Nearby METAR Reports

   
ENZV - Stavanger
Oppdatert: Feb 18 2018 8:20 pm
Klart  
Klart  
   Vind: ØSØ 2.6 m/s
Vind: ØSØ 2.6 m/s
Temperatur: 2°C
Wind Chill: -1°C
Duggpunkt: 1°C
Luftfuktighet: 93%
Barometer: 1019 hPa
Sikt: More then 10 km
Detaljer skyer: Klart ft
ENZV 181920Z 12005KT CAVOK 02/01 Q1019 NOSIG
ENCN - Kristiansand
Oppdatert: Feb 18 2018 8:20 pm
tåke, Overskyet  
tåke, Overskyet  
   Vind: Stille
Vind: Stille
Temperatur: 0°C
Duggpunkt: 0°C
Luftfuktighet: 100%
Barometer: 1019 hPa
Skyer: Overcast
Sikt: 0 km
Detaljer skyer: Overskyet 100 ft
ENCN 181920Z 00000KT 0100 R03/0400N R21/0650N FG VV001 00/00 Q1019
ENBR - Bergen
Oppdatert: Feb 18 2018 8:20 pm
Delvis overskyet  
Delvis overskyet  
   Vind: SSØ 1 m/s
Vind: SSØ 1 m/s
Temperatur: 0°C
Duggpunkt: 0°C
Luftfuktighet: 100%
Barometer: 1019 hPa
Skyer: Partly Cloudy
Sikt: More then 10 km
Detaljer skyer: Noen skyer 1100 ft,
Delvis overskyet 3200 ft
ENBR 181920Z 16002KT 9999 FEW011 SCT032 00/M00 Q1019 NOSIG RMK WIND 1200FT 15009KT
ENGM - Oslo
Oppdatert: Feb 18 2018 8:20 pm
For det meste Overskyet  
For det meste Overskyet  
   Vind: NNØ 1 m/s
Vind: NNØ 1 m/s
Temperatur: -3°C
Duggpunkt: -4°C
Luftfuktighet: 93%
Barometer: 1018 hPa
Skyer: Mostly Cloudy
Sikt: More then 10 km
Detaljer skyer: For det meste Overskyet 1800 ft
ENGM 181920Z 03002KT 9999 BKN018 M03/M04 Q1018 NOSIG
ENVA - Trondheim
Oppdatert: Feb 18 2018 8:20 pm
Klart  
Klart  
   Vind: Øst 4.1 m/s
Vind: Øst 4.1 m/s
Temperatur: -8°C
Wind Chill: -14°C
Duggpunkt: -11°C
Luftfuktighet: 79%
Barometer: 1021 hPa
Sikt: More then 10 km
Detaljer skyer: Klart ft
ENVA 181920Z 10008KT CAVOK M08/M11 Q1021 RMK WIND 670FT 13011KT
ENTC - Tromsø
Oppdatert: Feb 18 2018 8:20 pm
Klart  
Klart  
   Vind: varierende 1.5 m/s
Vind: varierende 1.5 m/s
Temperatur: -11°C
Wind Chill: -14°C
Duggpunkt: -13°C
Luftfuktighet: 85%
Barometer: 1024 hPa
Sikt: More then 10 km
Detaljer skyer: Klart ft
ENTC 181920Z VRB03KT CAVOK M11/M13 Q1024 NOSIG RMK WIND 2600FT 13010KT

Script utviklet av  Saratoga-weather.org Tilpasset for tamplaten av  Weerstation Leuven

Du finner vår vær info også på:

European Weather Network

WeatherCloud

Weather Underground

AWEKAS

HAMweather, WeatherForYou, PWS Weather

Utrustning vi bruker:

vær-station
Davis VP2

vær-programmet
Weather Display

Davis VP2

Weather Display